Time;durP1;ratioP1;P1;durP2;ratioP2;P2;SDS_P1;SDS_P2;PMS_P1;PMS_P2;Temp;Humidity;BMP_temperature;BMP_pressure;BME280_temperature;BME280_humidity;BME280_pressure;Samples;Min_cycle;Max_cycle;Signal;HPM_P1;HPM_P2
2024/02/05 00:02:24;;;;;;;0.20;0.20;;;;;;;9.60;100.00;99906.88;5019568;28;20037;-59
2024/02/05 00:04:52;;;;;;;0.20;0.20;;;;;;;9.57;100.00;99901.97;5041022;28;20052;-59
2024/02/05 00:07:19;;;;;;;0.30;0.30;;;;;;;9.59;100.00;99909.81;5022867;28;20101;-58
2024/02/05 00:09:47;;;;;;;0.30;0.30;;;;;;;9.62;100.00;99902.16;5043109;28;20044;-59
2024/02/05 00:12:16;;;;;;;0.20;0.20;;;;;;;9.63;100.00;99901.09;5021437;28;20044;-59
2024/02/05 00:14:43;;;;;;;0.20;0.20;;;;;;;9.70;100.00;99898.38;5044073;28;20045;-58
2024/02/05 00:17:10;;;;;;;0.20;0.20;;;;;;;9.61;100.00;99897.84;5044496;28;20073;-59
2024/02/05 00:19:37;;;;;;;0.20;0.20;;;;;;;9.72;100.00;99888.25;5044840;28;20088;-59
2024/02/05 00:22:06;;;;;;;0.28;0.28;;;;;;;9.72;100.00;99886.41;5039305;28;20041;-59
2024/02/05 00:24:33;;;;;;;0.10;0.10;;;;;;;9.71;100.00;99889.31;5043329;28;20052;-59
2024/02/05 00:27:00;;;;;;;0.20;0.20;;;;;;;9.71;100.00;99890.13;5041446;28;20049;-59
2024/02/05 00:29:27;;;;;;;0.20;0.20;;;;;;;9.85;100.00;99896.16;5018097;28;20045;-59
2024/02/05 00:31:54;;;;;;;0.20;0.20;;;;;;;9.74;100.00;99886.19;5042075;28;20083;-58
2024/02/05 00:34:21;;;;;;;0.20;0.20;;;;;;;9.74;100.00;99885.38;5043591;28;20136;-59
2024/02/05 00:36:48;;;;;;;0.30;0.30;;;;;;;9.71;100.00;99884.78;5041047;28;20052;-58
2024/02/05 00:39:17;;;;;;;0.20;0.20;;;;;;;9.73;100.00;99889.88;5043971;28;20046;-59
2024/02/05 00:41:44;;;;;;;0.20;0.20;;;;;;;9.79;100.00;99888.22;5024233;28;20045;-58
2024/02/05 00:44:11;;;;;;;0.20;0.20;;;;;;;9.79;100.00;99889.03;5043608;28;20064;-59
2024/02/05 00:46:38;;;;;;;0.20;0.20;;;;;;;9.87;100.00;99893.28;5025039;28;20133;-59
2024/02/05 00:49:06;;;;;;;0.30;0.30;;;;;;;9.78;100.00;99891.91;5043360;28;20127;-59
2024/02/05 00:51:33;;;;;;;0.20;0.20;;;;;;;9.83;100.00;99884.84;5039278;28;20053;-59
2024/02/05 00:54:00;;;;;;;0.20;0.20;;;;;;;9.81;100.00;99886.09;5039927;28;20047;-59
2024/02/05 00:56:29;;;;;;;0.20;0.20;;;;;;;9.90;100.00;99884.78;5044249;28;20079;-59
2024/02/05 00:58:56;;;;;;;0.20;0.20;;;;;;;9.83;100.00;99886.72;5041464;28;20127;-59
2024/02/05 01:01:23;;;;;;;0.15;0.15;;;;;;;9.87;100.00;99885.25;5042468;28;20044;-59
2024/02/05 01:03:50;;;;;;;0.17;0.17;;;;;;;9.84;100.00;99891.03;5042895;28;20054;-59
2024/02/05 01:06:18;;;;;;;0.20;0.20;;;;;;;9.85;100.00;99888.13;5042334;28;20052;-59
2024/02/05 01:08:46;;;;;;;0.20;0.20;;;;;;;9.80;100.00;99887.97;5043120;28;20059;-59
2024/02/05 01:11:15;;;;;;;0.30;0.30;;;;;;;9.84;100.00;99891.03;5025219;28;20040;-58
2024/02/05 01:13:44;;;;;;;0.25;0.25;;;;;;;9.87;100.00;99891.41;5041668;28;20526;-59
2024/02/05 01:16:11;;;;;;;0.20;0.20;;;;;;;9.86;100.00;99888.94;5023567;28;20072;-59
2024/02/05 01:18:38;;;;;;;0.20;0.20;;;;;;;9.92;100.00;99890.75;5024060;28;20041;-59
2024/02/05 01:21:06;;;;;;;0.20;0.20;;;;;;;9.83;100.00;99900.91;5041436;28;20041;-59
2024/02/05 01:23:34;;;;;;;0.30;0.30;;;;;;;9.91;100.00;99907.88;5043911;28;20052;-59
2024/02/05 01:26:01;;;;;;;0.20;0.20;;;;;;;9.89;100.00;99896.56;5037950;28;20698;-58
2024/02/05 01:28:28;;;;;;;0.20;0.20;;;;;;;9.96;100.00;99904.50;5040287;28;20049;-59
2024/02/05 01:30:57;;;;;;;0.20;0.20;;;;;;;9.87;100.00;99910.16;5041651;28;20068;-58
2024/02/05 01:33:24;;;;;;;0.30;0.30;;;;;;;9.91;100.00;99906.00;5043658;28;20103;-58
2024/02/05 01:35:51;;;;;;;0.30;0.30;;;;;;;9.93;100.00;99916.47;5039508;28;20047;-59
2024/02/05 01:38:19;;;;;;;0.10;0.10;;;;;;;9.86;100.00;99900.50;5045117;28;20041;-59
2024/02/05 01:40:46;;;;;;;0.25;0.25;;;;;;;9.85;100.00;99898.84;5022280;28;20095;-59
2024/02/05 01:43:13;;;;;;;0.30;0.30;;;;;;;9.92;100.00;99893.41;5039841;28;20136;-58
2024/02/05 01:45:40;;;;;;;0.20;0.20;;;;;;;9.90;100.00;99895.50;5039310;28;20052;-58
2024/02/05 01:48:09;;;;;;;0.20;0.20;;;;;;;9.90;100.00;99876.75;5019851;28;20052;-58
2024/02/05 01:50:38;;;;;;;0.20;0.20;;;;;;;9.91;100.00;99891.78;5039962;28;20040;-59
2024/02/05 01:53:05;;;;;;;0.20;0.20;;;;;;;9.89;100.00;99885.84;5018489;28;20128;-59
2024/02/05 01:55:32;;;;;;;0.30;0.30;;;;;;;9.88;100.00;99877.00;5042212;28;20065;-59
2024/02/05 01:57:59;;;;;;;0.20;0.20;;;;;;;9.96;100.00;99877.72;5040701;28;20519;-59
2024/02/05 02:00:31;;;;;;;0.20;0.20;;;;;;;10.02;100.00;99882.19;5007572;28;20049;-58
2024/02/05 02:03:00;;;;;;;0.20;0.20;;;;;;;10.03;100.00;99863.22;5037035;28;20087;-58
2024/02/05 02:05:29;;;;;;;0.20;0.20;;;;;;;10.04;100.00;99867.53;5040634;28;20044;-59
2024/02/05 02:07:56;;;;;;;0.20;0.20;;;;;;;9.92;100.00;99874.69;5039637;28;20032;-58
2024/02/05 02:10:23;;;;;;;0.17;0.17;;;;;;;9.91;100.00;99873.06;5041566;28;20045;-58
2024/02/05 02:12:50;;;;;;;0.30;0.30;;;;;;;9.88;100.00;99876.16;5041013;28;20048;-59
2024/02/05 02:15:17;;;;;;;0.10;0.10;;;;;;;9.91;100.00;99870.38;5037735;28;20419;-59
2024/02/05 02:17:45;;;;;;;0.10;0.10;;;;;;;9.93;100.00;99871.78;5041350;28;20113;-59
2024/02/05 02:20:12;;;;;;;0.20;0.20;;;;;;;9.83;100.00;99868.78;5040387;28;20045;-59
2024/02/05 02:22:48;;;;;;;0.15;0.15;;;;;;;9.93;100.00;99877.16;5041274;28;20052;-58
2024/02/05 02:25:17;;;;;;;0.20;0.20;;;;;;;9.95;100.00;99876.91;5042650;28;20049;-59
2024/02/05 02:27:44;;;;;;;0.30;0.30;;;;;;;9.96;100.00;99875.88;5044319;28;20029;-59
2024/02/05 02:30:12;;;;;;;0.20;0.20;;;;;;;9.99;100.00;99878.09;5022872;28;20082;-58
2024/02/05 02:32:44;;;;;;;0.20;0.20;;;;;;;9.90;100.00;99879.44;5041995;28;20098;-58
2024/02/05 02:35:13;;;;;;;0.20;0.20;;;;;;;9.89;100.00;99883.16;5041675;28;20094;-58
2024/02/05 02:37:51;;;;;;;0.20;0.20;;;;;;;9.96;100.00;99878.56;5043867;28;20098;-59
2024/02/05 02:40:19;;;;;;;0.20;0.20;;;;;;;9.88;100.00;99882.34;5023984;28;20110;-59
2024/02/05 02:42:46;;;;;;;0.30;0.30;;;;;;;9.88;100.00;99884.19;5040947;28;20399;-59
2024/02/05 02:45:13;;;;;;;0.30;0.30;;;;;;;9.84;100.00;99896.41;5042562;28;20041;-58
2024/02/05 02:47:42;;;;;;;0.20;0.20;;;;;;;9.80;100.00;99887.16;5041039;28;20051;-59
2024/02/05 02:50:10;;;;;;;0.20;0.20;;;;;;;9.75;100.00;99897.72;5039771;28;20106;-58
2024/02/05 02:52:37;;;;;;;0.20;0.20;;;;;;;9.86;100.00;99895.13;5040180;28;20415;-58
2024/02/05 02:55:06;;;;;;;0.20;0.20;;;;;;;9.88;100.00;99892.22;5041921;28;20106;-59
2024/02/05 02:57:34;;;;;;;0.30;0.30;;;;;;;9.84;100.00;99891.03;5040647;28;20041;-58
2024/02/05 03:00:01;;;;;;;0.15;0.15;;;;;;;9.77;100.00;99903.66;5037856;28;20454;-59
2024/02/05 03:02:28;;;;;;;0.20;0.20;;;;;;;9.83;100.00;99892.88;5042101;28;20407;-59
2024/02/05 03:04:58;;;;;;;0.28;0.28;;;;;;;9.79;100.00;99894.38;5023193;28;20128;-59
2024/02/05 03:07:26;;;;;;;0.20;0.20;;;;;;;9.84;100.00;99896.41;5036027;28;20563;-59
2024/02/05 03:09:53;;;;;;;0.20;0.20;;;;;;;9.78;100.00;99897.25;5040991;28;20630;-59
2024/02/05 03:12:21;;;;;;;0.20;0.20;;;;;;;9.82;100.00;99899.28;5039747;28;20189;-59
2024/02/05 03:14:49;;;;;;;0.20;0.20;;;;;;;9.81;100.00;99897.66;5039640;28;20099;-59
2024/02/05 03:17:16;;;;;;;0.20;0.20;;;;;;;9.79;100.00;99905.09;5041645;28;20045;-59
2024/02/05 03:19:43;;;;;;;0.20;0.20;;;;;;;9.78;100.00;99899.94;5040567;28;20049;-59
2024/02/05 03:22:12;;;;;;;0.20;0.20;;;;;;;9.93;100.00;99889.69;5024569;28;20187;-59
2024/02/05 03:24:39;;;;;;;0.20;0.20;;;;;;;9.84;100.00;99888.38;5041021;28;20049;-59
2024/02/05 03:27:06;;;;;;;0.20;0.20;;;;;;;9.89;100.00;99883.16;5041552;28;20154;-58
2024/02/05 03:29:33;;;;;;;0.22;0.22;;;;;;;9.78;100.00;99875.84;5041714;28;20698;-59
2024/02/05 03:32:02;;;;;;;0.30;0.30;;;;;;;9.89;100.00;99877.81;5045405;28;20579;-59
2024/02/05 03:34:29;;;;;;;0.20;0.20;;;;;;;9.84;100.00;99885.69;5039868;28;20053;-59
2024/02/05 03:36:56;;;;;;;0.20;0.20;;;;;;;9.89;100.00;99883.16;5042547;28;20131;-58
2024/02/05 03:39:24;;;;;;;0.20;0.20;;;;;;;9.86;100.00;99886.25;5024212;28;20041;-58
2024/02/05 03:41:51;;;;;;;0.30;0.30;;;;;;;9.84;100.00;99896.41;5037276;28;20037;-59
2024/02/05 03:44:18;;;;;;;0.20;0.20;;;;;;;9.77;100.00;99888.41;5043060;28;20056;-59
2024/02/05 03:46:45;;;;;;;0.30;0.30;;;;;;;9.83;100.00;99890.19;5044614;28;20085;-59
2024/02/05 03:49:14;;;;;;;0.20;0.20;;;;;;;9.85;100.00;99893.47;5042545;28;20069;-59
2024/02/05 03:51:41;;;;;;;0.20;0.20;;;;;;;9.84;100.00;99896.41;5044515;28;20065;-59
2024/02/05 03:54:08;;;;;;;0.20;0.20;;;;;;;9.89;100.00;99894.69;5045960;28;20568;-58
2024/02/05 03:56:35;;;;;;;0.20;0.20;;;;;;;9.90;100.00;99896.31;5042948;28;20045;-58
2024/02/05 03:59:02;;;;;;;0.20;0.20;;;;;;;9.86;100.00;99894.28;5005687;28;20053;-58
2024/02/05 04:01:29;;;;;;;0.22;0.22;;;;;;;9.79;100.00;99891.69;5042432;28;20077;-58
2024/02/05 04:03:56;;;;;;;0.20;0.20;;;;;;;9.75;100.00;99892.34;5029384;28;20045;-58
2024/02/05 04:06:25;;;;;;;0.20;0.20;;;;;;;9.77;100.00;99892.97;5045564;28;20123;-59
2024/02/05 04:08:52;;;;;;;0.20;0.20;;;;;;;9.78;100.00;99889.22;5039269;28;20053;-59
2024/02/05 04:11:20;;;;;;;0.28;0.28;;;;;;;9.69;100.00;99884.16;5044821;28;20041;-59
2024/02/05 04:13:50;;;;;;;0.20;0.20;;;;;;;9.81;100.00;99891.47;5028316;28;20462;-59
2024/02/05 04:16:17;;;;;;;0.20;0.20;;;;;;;9.71;100.00;99887.44;5039903;28;20037;-58
2024/02/05 04:18:44;;;;;;;0.20;0.20;;;;;;;9.71;100.00;99887.44;5040330;28;20040;-59
2024/02/05 04:21:11;;;;;;;0.20;0.20;;;;;;;9.71;100.00;99884.78;5018372;28;20049;-58
2024/02/05 04:23:39;;;;;;;0.20;0.20;;;;;;;9.88;100.00;99884.19;5042931;28;20048;-59
2024/02/05 04:26:14;;;;;;;0.20;0.20;;;;;;;9.71;100.00;99882.09;5042763;28;20041;-59
2024/02/05 04:28:41;;;;;;;0.20;0.20;;;;;;;9.78;100.00;99883.88;5044199;28;20415;-59
2024/02/05 04:31:09;;;;;;;0.20;0.20;;;;;;;9.70;100.00;99893.81;5027805;28;20178;-59
2024/02/05 04:33:36;;;;;;;0.20;0.20;;;;;;;9.72;100.00;99890.94;5041926;28;20427;-58
2024/02/05 04:36:03;;;;;;;0.20;0.20;;;;;;;9.72;100.00;99905.13;5042991;28;20041;-59
2024/02/05 04:38:30;;;;;;;0.20;0.20;;;;;;;9.75;100.00;99903.06;5044033;28;20073;-59
2024/02/05 04:40:59;;;;;;;0.20;0.20;;;;;;;9.69;100.00;99896.75;5043779;28;20079;-59
2024/02/05 04:43:26;;;;;;;0.30;0.30;;;;;;;9.67;100.00;99907.66;5043141;28;20499;-59
2024/02/05 04:45:53;;;;;;;0.22;0.22;;;;;;;9.65;100.00;99909.72;5049164;28;20041;-59
2024/02/05 04:48:21;;;;;;;0.30;0.30;;;;;;;9.60;100.00;99909.56;5026665;28;20049;-58
2024/02/05 04:50:48;;;;;;;0.20;0.20;;;;;;;9.67;100.00;99907.66;5042961;28;20048;-59
2024/02/05 04:53:15;;;;;;;0.20;0.20;;;;;;;9.67;100.00;99913.00;5036320;28;20063;-59
2024/02/05 04:55:42;;;;;;;0.20;0.20;;;;;;;9.66;100.00;99903.34;5042812;28;20384;-59
2024/02/05 04:58:11;;;;;;;0.20;0.20;;;;;;;9.64;100.00;99899.25;5045206;28;20045;-58
2024/02/05 05:00:38;;;;;;;0.30;0.30;;;;;;;9.66;100.00;99905.19;5043641;28;20387;-58
2024/02/05 05:03:06;;;;;;;0.20;0.20;;;;;;;9.60;100.00;99906.88;5021191;28;20487;-58
2024/02/05 05:05:33;;;;;;;0.20;0.20;;;;;;;9.61;100.00;99892.50;5026477;28;20141;-58
2024/02/05 05:08:01;;;;;;;0.30;0.30;;;;;;;9.70;100.00;99896.50;5022682;28;22352;-59
2024/02/05 05:10:28;;;;;;;0.20;0.20;;;;;;;9.63;100.00;99890.38;5008020;28;20048;-58
2024/02/05 05:12:55;;;;;;;0.20;0.20;;;;;;;9.69;100.00;99892.19;5041385;28;20045;-59
2024/02/05 05:15:23;;;;;;;0.20;0.20;;;;;;;9.74;100.00;99890.72;5043810;28;20118;-59
2024/02/05 05:17:50;;;;;;;0.20;0.20;;;;;;;9.60;100.00;99900.72;5039310;28;20041;-59
2024/02/05 05:20:17;;;;;;;0.20;0.20;;;;;;;9.58;100.00;99897.44;5043201;28;20116;-59
2024/02/05 05:22:44;;;;;;;0.30;0.30;;;;;;;9.57;100.00;99899.31;5042429;28;20045;-59
2024/02/05 05:25:12;;;;;;;0.20;0.20;;;;;;;9.57;100.00;99901.19;5042968;28;20278;-59
2024/02/05 05:27:39;;;;;;;0.30;0.30;;;;;;;9.52;100.00;99901.00;5043675;28;20407;-59
2024/02/05 05:30:10;;;;;;;0.30;0.30;;;;;;;9.51;100.00;99902.88;5023932;28;20128;-59
2024/02/05 05:32:38;;;;;;;0.20;0.20;;;;;;;9.55;100.00;99896.03;5038971;28;20127;-58
2024/02/05 05:35:06;;;;;;;0.20;0.20;;;;;;;9.55;100.00;99893.34;5042514;28;20055;-59
2024/02/05 05:37:33;;;;;;;0.20;0.20;;;;;;;9.47;100.00;99901.66;5042754;28;20183;-58
2024/02/05 05:40:00;;;;;;;0.20;0.20;;;;;;;9.49;100.00;99899.59;5042989;28;20403;-59
2024/02/05 05:42:27;;;;;;;0.30;0.30;;;;;;;9.48;100.00;99900.63;5014420;28;20048;-58
2024/02/05 05:44:55;;;;;;;0.30;0.30;;;;;;;9.59;100.00;99894.56;5039524;28;20044;-58
2024/02/05 05:47:22;;;;;;;0.20;0.20;;;;;;;9.55;100.00;99906.72;5039516;28;20057;-59
2024/02/05 05:49:51;;;;;;;0.20;0.20;;;;;;;9.52;100.00;99898.34;5038218;28;20098;-59
2024/02/05 05:52:19;;;;;;;0.30;0.30;;;;;;;9.45;100.00;99893.03;5039066;28;20064;-58
2024/02/05 05:54:46;;;;;;;0.30;0.30;;;;;;;9.54;100.00;99897.06;5042444;28;20128;-58
2024/02/05 05:57:14;;;;;;;0.28;0.28;;;;;;;9.46;100.00;99895.50;5025275;28;20049;-59
2024/02/05 05:59:41;;;;;;;0.20;0.20;;;;;;;9.39;100.00;99888.56;5038005;28;20404;-58
2024/02/05 06:02:08;;;;;;;0.28;0.28;;;;;;;9.44;100.00;99883.38;5008498;28;20044;-58
2024/02/05 06:04:36;;;;;;;0.30;0.30;;;;;;;9.49;100.00;99879.00;5042282;28;20134;-58
2024/02/05 06:07:06;;;;;;;0.20;0.20;;;;;;;9.48;100.00;99887.22;5038650;28;20055;-59
2024/02/05 06:09:33;;;;;;;0.20;0.20;;;;;;;9.40;100.00;99876.81;5042983;28;20064;-58
2024/02/05 06:12:02;;;;;;;0.20;0.20;;;;;;;9.38;100.00;99884.22;5042046;28;20279;-59
2024/02/05 06:14:29;;;;;;;0.20;0.20;;;;;;;9.32;100.00;99885.94;5042495;28;20436;-58
2024/02/05 06:16:56;;;;;;;0.30;0.30;;;;;;;9.26;100.00;99879.59;5041824;28;20103;-58
2024/02/05 06:19:23;;;;;;;0.30;0.30;;;;;;;9.20;100.00;99868.94;5039843;28;20038;-59
2024/02/05 06:21:51;;;;;;;0.20;0.20;;;;;;;9.22;100.00;99872.22;5042150;28;20601;-60
2024/02/05 06:24:19;;;;;;;0.20;0.20;;;;;;;9.23;100.00;99874.66;5039812;28;20103;-61
2024/02/05 06:26:47;;;;;;;0.20;0.20;;;;;;;9.17;100.00;99880.91;5041719;28;20053;-59
2024/02/05 06:29:14;;;;;;;0.30;0.30;;;;;;;9.05;100.00;99866.59;5023631;28;20044;-59
2024/02/05 06:31:41;;;;;;;0.20;0.20;;;;;;;9.09;100.00;99867.00;5042397;28;20627;-58
2024/02/05 06:34:08;;;;;;;0.25;0.25;;;;;;;9.06;100.00;99873.56;5042249;28;20522;-59
2024/02/05 06:36:35;;;;;;;0.20;0.20;;;;;;;9.08;100.00;99868.81;5045133;28;20041;-59
2024/02/05 06:39:03;;;;;;;0.30;0.30;;;;;;;8.98;100.00;99865.81;5040576;28;20553;-58
2024/02/05 06:41:33;;;;;;;0.32;0.32;;;;;;;9.00;100.00;99869.09;5041717;28;20045;-58
2024/02/05 06:44:00;;;;;;;0.20;0.20;;;;;;;8.96;100.00;99868.72;5041684;28;20041;-58
2024/02/05 06:46:27;;;;;;;0.30;0.30;;;;;;;8.97;100.00;99874.88;5041379;28;20288;-58
2024/02/05 06:48:54;;;;;;;0.30;0.30;;;;;;;8.97;100.00;99864.19;5042609;28;20052;-58
2024/02/05 06:51:21;;;;;;;0.20;0.20;;;;;;;8.86;100.00;99868.34;5041528;28;20045;-58
2024/02/05 06:53:49;;;;;;;0.35;0.35;;;;;;;8.78;100.00;99864.09;5018900;28;20051;-59
2024/02/05 06:56:16;;;;;;;0.20;0.20;;;;;;;8.83;100.00;99874.94;5042231;28;20299;-59
2024/02/05 06:58:44;;;;;;;0.30;0.30;;;;;;;8.91;100.00;99868.56;5022446;28;20051;-59
2024/02/05 07:01:12;;;;;;;0.28;0.28;;;;;;;8.87;100.00;99869.19;5040462;28;20537;-59
2024/02/05 07:03:39;;;;;;;0.30;0.30;;;;;;;8.70;100.00;99867.03;5017595;28;20041;-59
2024/02/05 07:06:07;;;;;;;0.30;0.30;;;;;;;8.85;100.00;99866.72;5041226;28;20064;-58
2024/02/05 07:08:34;;;;;;;0.25;0.25;;;;;;;8.76;100.00;99865.34;5036916;28;20041;-58
2024/02/05 07:11:01;;;;;;;0.30;0.30;;;;;;;9.43;100.00;99873.69;5039730;28;20507;-58
2024/02/05 07:13:29;;;;;;;0.25;0.25;;;;;;;9.32;100.00;99877.09;5036731;28;20048;-58
2024/02/05 07:15:58;;;;;;;0.20;0.20;;;;;;;9.54;100.00;99870.31;5038933;28;20449;-59
2024/02/05 07:18:25;;;;;;;0.30;0.30;;;;;;;9.71;100.00;99878.59;5027315;28;20103;-58
2024/02/05 07:20:53;;;;;;;0.30;0.30;;;;;;;9.44;100.00;99875.34;5039292;28;20077;-59
2024/02/05 07:23:20;;;;;;;0.30;0.30;;;;;;;9.58;100.00;99878.72;5039948;28;20178;-58
2024/02/05 07:25:47;;;;;;;0.30;0.30;;;;;;;9.36;100.00;99883.63;5023404;28;20045;-58
2024/02/05 07:28:14;;;;;;;0.30;0.30;;;;;;;9.58;100.00;99884.88;5041267;28;20563;-59
2024/02/05 07:30:41;;;;;;;0.30;0.30;;;;;;;9.67;100.00;99888.91;5016875;28;20041;-58
2024/02/05 07:33:10;;;;;;;0.30;0.30;;;;;;;9.55;100.00;99887.19;5035483;28;20044;-59
2024/02/05 07:35:37;;;;;;;0.30;0.30;;;;;;;9.62;100.00;99895.97;5039285;28;20511;-59
2024/02/05 07:38:05;;;;;;;0.30;0.30;;;;;;;9.44;100.00;99886.06;5035691;28;20137;-58
2024/02/05 07:40:32;;;;;;;0.30;0.30;;;;;;;9.52;100.00;99893.78;5039875;28;20044;-58
2024/02/05 07:42:59;;;;;;;0.20;0.20;;;;;;;9.58;100.00;99897.44;5040106;28;20037;-59
2024/02/05 07:45:26;;;;;;;0.30;0.30;;;;;;;9.62;100.00;99888.75;5036753;28;20048;-59
2024/02/05 07:47:53;;;;;;;0.30;0.30;;;;;;;9.72;100.00;99886.41;5036807;28;20139;-59
2024/02/05 07:50:22;;;;;;;0.20;0.20;;;;;;;9.74;100.00;99885.38;5040476;28;20056;-59
2024/02/05 07:52:50;;;;;;;0.30;0.30;;;;;;;9.66;100.00;99886.44;5037450;28;20160;-59
2024/02/05 07:55:17;;;;;;;0.30;0.30;;;;;;;9.70;99.54;99891.16;5040647;28;20132;-58
2024/02/05 07:57:44;;;;;;;0.30;0.30;;;;;;;9.61;100.00;99886.28;5036762;28;20060;-58
2024/02/05 08:00:13;;;;;;;0.30;0.30;;;;;;;9.64;100.00;99884.00;5031593;28;20076;-58
2024/02/05 08:02:40;;;;;;;0.22;0.22;;;;;;;9.80;98.58;99884.47;5027455;28;20065;-59
2024/02/05 08:05:08;;;;;;;0.30;0.30;;;;;;;9.89;99.06;99896.56;5037484;28;20758;-59
2024/02/05 08:07:39;;;;;;;0.30;0.30;;;;;;;9.92;100.00;99894.22;5035469;28;20584;-59
2024/02/05 08:10:07;;;;;;;0.20;0.20;;;;;;;9.77;98.35;99906.34;5037084;28;20107;-59
2024/02/05 08:12:34;;;;;;;0.30;0.30;;;;;;;9.90;97.25;99903.53;5033601;28;20057;-59
2024/02/05 08:15:01;;;;;;;0.30;0.30;;;;;;;9.81;98.75;99897.66;5018467;28;20057;-58
2024/02/05 08:17:29;;;;;;;0.20;0.20;;;;;;;10.44;94.71;99895.75;5017909;28;20377;-59
2024/02/05 08:19:56;;;;;;;0.30;0.30;;;;;;;10.76;94.73;99896.38;5037610;28;20164;-58
2024/02/05 08:22:25;;;;;;;0.20;0.20;;;;;;;10.75;91.63;99895.53;5033986;28;20037;-58
2024/02/05 08:24:53;;;;;;;0.15;0.15;;;;;;;11.29;89.34;99898.28;5037374;28;20055;-59
2024/02/05 08:27:21;;;;;;;0.20;0.20;;;;;;;11.37;86.37;99892.56;4997236;28;20048;-59
2024/02/05 08:29:48;;;;;;;0.30;0.30;;;;;;;11.42;85.76;99887.31;5023675;28;20135;-59
2024/02/05 08:32:15;;;;;;;0.30;0.30;;;;;;;11.85;83.70;99898.78;5041133;28;20037;-58
2024/02/05 08:34:43;;;;;;;0.20;0.20;;;;;;;11.78;84.31;99903.44;5044250;28;20845;-58
2024/02/05 08:37:10;;;;;;;0.30;0.30;;;;;;;11.69;82.66;99894.94;5041216;28;20041;-58
2024/02/05 08:39:37;;;;;;;0.20;0.20;;;;;;;12.06;82.12;99895.53;5041336;28;20045;-59
2024/02/05 08:42:06;;;;;;;0.20;0.20;;;;;;;11.61;82.97;99911.41;5038149;28;20479;-58
2024/02/05 08:44:33;;;;;;;0.20;0.20;;;;;;;12.44;80.11;99904.09;5017274;28;20068;-59
2024/02/05 08:47:00;;;;;;;0.20;0.20;;;;;;;12.75;78.82;99908.19;5041462;28;20053;-58
2024/02/05 08:49:28;;;;;;;0.25;0.25;;;;;;;12.46;79.01;99894.72;5042057;28;20041;-59
2024/02/05 08:51:56;;;;;;;0.20;0.20;;;;;;;12.55;81.43;99907.78;5040304;28;20403;-58
2024/02/05 08:54:23;;;;;;;0.30;0.30;;;;;;;12.94;78.36;99903.44;5040254;28;20077;-58
2024/02/05 08:56:50;;;;;;;0.10;0.10;;;;;;;13.19;75.38;99904.94;5042626;28;20055;-59
2024/02/05 08:59:19;;;;;;;0.20;0.20;;;;;;;13.37;75.52;99897.47;5041329;28;20044;-59
2024/02/05 09:01:48;;;;;;;0.28;0.28;;;;;;;13.52;74.77;99898.78;5042764;28;20047;-58
2024/02/05 09:04:15;;;;;;;0.20;0.20;;;;;;;13.33;75.41;99892.84;5024208;28;20048;-59
2024/02/05 09:06:42;;;;;;;0.20;0.20;;;;;;;12.91;76.71;99898.53;5020706;28;20126;-58
2024/02/05 09:09:09;;;;;;;0.30;0.30;;;;;;;12.68;78.13;99894.91;5044665;28;20041;-59
2024/02/05 09:11:36;;;;;;;0.20;0.20;;;;;;;13.16;75.66;99901.69;5041903;28;20419;-58
2024/02/05 09:14:03;;;;;;;0.20;0.20;;;;;;;12.83;75.99;99897.06;5041827;28;20053;-58
2024/02/05 09:16:32;;;;;;;0.20;0.20;;;;;;;13.22;77.65;99899.06;5041434;28;20045;-58
2024/02/05 09:18:59;;;;;;;0.20;0.20;;;;;;;13.36;75.81;99895.03;5036341;28;20095;-59
2024/02/05 09:21:26;;;;;;;0.30;0.30;;;;;;;13.15;75.74;99889.28;5039361;28;20045;-59
2024/02/05 09:23:53;;;;;;;0.30;0.30;;;;;;;13.27;75.52;99896.50;5038157;28;20131;-59
2024/02/05 09:26:20;;;;;;;0.20;0.20;;;;;;;12.62;75.76;99897.72;5021690;28;20044;-58
2024/02/05 09:28:47;;;;;;;0.30;0.30;;;;;;;13.35;73.69;99894.22;5004629;28;20082;-58
2024/02/05 09:31:15;;;;;;;0.20;0.20;;;;;;;12.97;77.10;99900.25;5025034;28;20043;-57
2024/02/05 09:33:44;;;;;;;0.20;0.20;;;;;;;13.44;73.91;99900.00;5042520;28;20037;-57
2024/02/05 09:36:11;;;;;;;0.20;0.20;;;;;;;13.50;72.72;99911.69;5041560;28;20103;-57
2024/02/05 09:38:38;;;;;;;0.13;0.13;;;;;;;13.80;73.20;99917.56;5042711;28;20045;-57
2024/02/05 09:41:06;;;;;;;0.10;0.10;;;;;;;13.58;72.44;99914.78;5036377;28;20585;-58
2024/02/05 09:43:33;;;;;;;0.10;0.10;;;;;;;13.56;73.84;99906.13;5042534;28;20037;-58
2024/02/05 09:46:04;;;;;;;0.20;0.20;;;;;;;13.40;74.08;99903.44;5041054;28;20049;-58
2024/02/05 09:48:32;;;;;;;0.20;0.20;;;;;;;13.94;72.57;99907.22;5005730;28;20056;-58
2024/02/05 09:51:02;;;;;;;0.20;0.20;;;;;;;13.73;72.05;99891.84;4999652;28;20065;-58
2024/02/05 09:53:29;;;;;;;0.20;0.20;;;;;;;13.53;73.11;99895.06;4999317;28;20244;-58
2024/02/05 09:55:57;;;;;;;0.20;0.20;;;;;;;13.78;72.99;99897.31;4996422;28;20054;-59
2024/02/05 09:58:24;;;;;;;0.40;0.40;;;;;;;13.55;72.67;99891.06;5001995;28;20132;-59
2024/02/05 10:00:51;;;;;;;0.20;0.20;;;;;;;12.91;74.63;99887.78;5000116;28;20041;-58
2024/02/05 10:03:18;;;;;;;0.20;0.20;;;;;;;13.55;73.60;99885.66;4994503;28;20044;-58
2024/02/05 10:05:46;;;;;;;0.20;0.20;;;;;;;13.24;74.10;99886.19;5000338;28;20057;-60
2024/02/05 10:08:15;;;;;;;0.20;0.20;;;;;;;12.98;73.22;99882.22;4996687;28;20068;-58
2024/02/05 10:10:42;;;;;;;0.20;0.20;;;;;;;13.65;71.93;99892.25;5000351;28;20520;-58
2024/02/05 10:13:09;;;;;;;0.20;0.20;;;;;;;13.24;73.53;99886.19;4998689;28;20104;-59
2024/02/05 10:15:36;;;;;;;0.17;0.17;;;;;;;13.50;73.02;99901.72;4999238;28;20666;-58
2024/02/05 10:18:04;;;;;;;0.10;0.10;;;;;;;13.38;72.41;99895.63;5001025;28;20045;-58
2024/02/05 10:20:33;;;;;;;0.10;0.10;;;;;;;13.31;72.49;99897.66;4996282;28;20038;-58
2024/02/05 10:23:00;;;;;;;0.20;0.20;;;;;;;13.35;71.08;99899.63;5008222;28;20132;-58
2024/02/05 10:25:28;;;;;;;0.10;0.10;;;;;;;13.22;72.55;99902.56;4999330;28;20403;-58
2024/02/05 10:28:00;;;;;;;0.20;0.20;;;;;;;13.25;73.91;99898.59;4997332;28;20041;-58
2024/02/05 10:30:27;;;;;;;0.20;0.20;;;;;;;12.98;72.53;99901.91;4998797;28;20045;-58
2024/02/05 10:32:56;;;;;;;0.20;0.20;;;;;;;13.29;73.11;99891.69;4997611;28;20425;-58
2024/02/05 10:35:24;;;;;;;0.20;0.20;;;;;;;12.97;72.95;99876.03;4969662;28;20042;-58
2024/02/05 10:37:51;;;;;;;0.20;0.20;;;;;;;13.52;73.00;99888.81;5000443;28;20038;-59
2024/02/05 10:40:18;;;;;;;0.20;0.20;;;;;;;13.41;71.72;99878.97;4998877;28;20042;-58
2024/02/05 10:42:46;;;;;;;0.20;0.20;;;;;;;13.37;71.18;99867.03;4998163;28;20457;-58
2024/02/05 10:45:13;;;;;;;0.20;0.20;;;;;;;13.14;73.44;99884.94;4997409;28;20045;-58
2024/02/05 10:47:42;;;;;;;0.20;0.20;;;;;;;13.06;72.42;99884.56;5016698;28;20041;-58
2024/02/05 10:50:13;;;;;;;0.20;0.20;;;;;;;13.13;74.09;99880.63;5038007;28;20632;-58
2024/02/05 10:52:41;;;;;;;0.20;0.20;;;;;;;12.95;74.41;99883.53;5038262;28;20045;-58
2024/02/05 10:55:09;;;;;;;0.20;0.20;;;;;;;12.87;71.63;99870.47;5036890;28;20119;-58
2024/02/05 10:57:37;;;;;;;0.22;0.22;;;;;;;13.34;71.04;99878.31;5037821;28;20507;-58
2024/02/05 11:00:08;;;;;;;0.10;0.10;;;;;;;12.95;72.83;99883.53;5017329;28;20060;-58
2024/02/05 11:02:36;;;;;;;0.20;0.20;;;;;;;13.36;72.50;99878.88;5038428;28;20416;-58
2024/02/05 11:05:03;;;;;;;0.20;0.20;;;;;;;13.01;72.78;99881.78;5038989;28;20457;-58
2024/02/05 11:07:34;;;;;;;0.20;0.20;;;;;;;12.93;73.80;99874.91;5020264;28;20669;-58
2024/02/05 11:10:02;;;;;;;0.20;0.20;;;;;;;13.91;70.90;99875.41;5036954;28;20172;-58
2024/02/05 11:12:31;;;;;;;0.10;0.10;;;;;;;13.43;72.83;99866.09;5037615;28;20037;-58
2024/02/05 11:15:05;;;;;;;0.10;0.10;;;;;;;13.34;73.70;99868.34;5016617;28;20045;-58
2024/02/05 11:17:33;;;;;;;0.20;0.20;;;;;;;13.08;73.68;99850.94;5014524;28;20660;-58
2024/02/05 11:20:00;;;;;;;0.20;0.20;;;;;;;12.78;75.09;99869.22;5030557;28;21395;-58
2024/02/05 11:22:28;;;;;;;0.15;0.15;;;;;;;12.52;78.18;99852.63;5017312;28;20574;-58
2024/02/05 11:24:55;;;;;;;0.20;0.20;;;;;;;12.40;79.12;99846.47;5033645;28;20105;-58
2024/02/05 11:27:22;;;;;;;0.20;0.20;;;;;;;12.51;76.79;99859.06;5032894;28;20037;-58
2024/02/05 11:29:50;;;;;;;0.20;0.20;;;;;;;11.93;76.47;99850.13;5039165;28;20041;-59
2024/02/05 11:32:17;;;;;;;0.20;0.20;;;;;;;12.77;78.18;99854.97;5038635;28;20052;-58
2024/02/05 11:34:46;;;;;;;0.20;0.20;;;;;;;12.58;77.29;99857.06;5040611;28;20542;-57
2024/02/05 11:37:16;;;;;;;0.20;0.20;;;;;;;12.70;76.69;99849.75;5013104;28;20232;-58